createdAt,value
2023-04-10T00:00:02.535Z,91303.94
2023-04-10T00:02:29.418Z,91298.59
2023-04-10T00:04:56.315Z,91302.53
2023-04-10T00:07:23.155Z,91297.34
2023-04-10T00:09:49.821Z,91282.03
2023-04-10T00:12:16.749Z,91287.13
2023-04-10T00:14:43.643Z,91280.31
2023-04-10T00:17:10.705Z,91290.41
2023-04-10T00:19:47.381Z,91282.28
2023-04-10T00:22:15.055Z,91291.25
2023-04-10T00:24:41.720Z,91283.53
2023-04-10T00:27:08.356Z,91291.72
2023-04-10T00:29:35.516Z,91274.41
2023-04-10T00:32:02.777Z,91273.97
2023-04-10T00:34:29.509Z,91274.34
2023-04-10T00:36:56.435Z,91269.88
2023-04-10T00:39:23.072Z,91279.78
2023-04-10T00:41:49.742Z,91270.41
2023-04-10T00:44:16.450Z,91266.06
2023-04-10T00:46:43.801Z,91254.59
2023-04-10T00:49:10.958Z,91263.03
2023-04-10T00:51:37.901Z,91251.56
2023-04-10T00:54:04.808Z,91263.09
2023-04-10T00:56:32.470Z,91256.53
2023-04-10T00:58:59.444Z,91268.66
2023-04-10T01:01:26.400Z,91252.53
2023-04-10T01:03:56.209Z,91263.41
2023-04-10T01:06:54.153Z,91271.31
2023-04-10T01:09:29.920Z,91246.59
2023-04-10T01:12:19.571Z,91264.44
2023-04-10T01:15:04.855Z,91260.56
2023-04-10T01:17:46.707Z,91264.31
2023-04-10T01:20:23.633Z,91261.38
2023-04-10T01:23:24.143Z,91263.34
2023-04-10T01:26:04.722Z,91242.94
2023-04-10T01:28:53.432Z,91262.63
2023-04-10T01:31:39.300Z,91265.03
2023-04-10T01:34:10.553Z,91257.44
2023-04-10T01:36:51.400Z,91244.09
2023-04-10T01:39:22.829Z,91260.31
2023-04-10T01:41:54.417Z,91259.47
2023-04-10T01:44:27.709Z,91255.91
2023-04-10T01:46:56.803Z,91256.88
2023-04-10T01:49:26.553Z,91259.22
2023-04-10T01:51:58.394Z,91255.03
2023-04-10T01:54:27.984Z,91255.50
2023-04-10T01:56:56.827Z,91258.00
2023-04-10T01:59:23.567Z,91258.91
2023-04-10T02:01:56.517Z,91207.53
2023-04-10T02:04:23.357Z,91260.00
2023-04-10T02:07:02.402Z,91255.97
2023-04-10T02:09:44.993Z,91251.69
2023-04-10T02:12:19.149Z,91247.44
2023-04-10T02:14:50.706Z,91249.09
2023-04-10T02:17:23.625Z,91248.28
2023-04-10T02:19:53.334Z,91240.16
2023-04-10T02:22:21.995Z,91242.53
2023-04-10T02:24:49.952Z,91228.69
2023-04-10T02:27:16.686Z,91240.34
2023-04-10T02:29:43.351Z,91220.41
2023-04-10T02:32:10.802Z,91231.81
2023-04-10T02:34:37.426Z,91223.84
2023-04-10T02:37:04.120Z,91219.94
2023-04-10T02:39:30.966Z,91225.91
2023-04-10T02:41:57.822Z,91221.38
2023-04-10T02:44:24.549Z,91220.59
2023-04-10T02:46:51.557Z,91214.13
2023-04-10T02:49:18.244Z,91211.22
2023-04-10T02:51:44.979Z,91220.84
2023-04-10T02:54:11.716Z,91219.94
2023-04-10T02:56:38.416Z,91216.72
2023-04-10T02:59:05.094Z,91218.94
2023-04-10T03:01:32.299Z,91215.91
2023-04-10T03:03:59.386Z,91227.25
2023-04-10T03:06:29.250Z,91218.34
2023-04-10T03:08:56.420Z,91209.97
2023-04-10T03:11:23.641Z,91207.69
2023-04-10T03:13:50.406Z,91216.19
2023-04-10T03:16:19.927Z,91219.50
2023-04-10T03:18:47.094Z,91213.75
2023-04-10T03:21:13.784Z,91216.19
2023-04-10T03:23:40.496Z,91218.56
2023-04-10T03:26:07.364Z,91214.81
2023-04-10T03:28:35.668Z,91213.75
2023-04-10T03:31:06.120Z,91209.97
2023-04-10T03:33:32.762Z,91213.13
2023-04-10T03:35:59.557Z,91213.91
2023-04-10T03:38:26.236Z,91206.31
2023-04-10T03:40:53.996Z,91192.28
2023-04-10T03:43:20.807Z,91211.25
2023-04-10T03:45:47.661Z,91209.53
2023-04-10T03:48:14.318Z,91206.00
2023-04-10T03:50:41.161Z,91212.88
2023-04-10T03:53:08.046Z,91203.66
2023-04-10T03:55:34.957Z,91213.66
2023-04-10T03:58:01.647Z,91211.28
2023-04-10T04:00:28.455Z,91216.63
2023-04-10T04:02:55.462Z,91212.03
2023-04-10T04:05:22.447Z,91219.38
2023-04-10T04:07:49.178Z,91212.50
2023-04-10T04:10:16.058Z,91218.41
2023-04-10T04:12:42.706Z,91206.72
2023-04-10T04:15:09.915Z,91201.19
2023-04-10T04:17:36.648Z,91219.13
2023-04-10T04:20:03.708Z,91228.53
2023-04-10T04:22:30.445Z,91232.66
2023-04-10T04:24:57.098Z,91220.09
2023-04-10T04:27:23.791Z,91229.03
2023-04-10T04:29:50.552Z,91229.03
2023-04-10T04:32:17.322Z,91229.59
2023-04-10T04:34:44.142Z,91216.66
2023-04-10T04:37:11.002Z,91225.59
2023-04-10T04:39:37.717Z,91228.53
2023-04-10T04:42:04.814Z,91216.34
2023-04-10T04:44:31.954Z,91224.91
2023-04-10T04:46:58.597Z,91229.00
2023-04-10T04:49:25.469Z,91228.44
2023-04-10T04:51:52.988Z,91219.13
2023-04-10T04:54:20.359Z,91224.38
2023-04-10T04:56:47.102Z,91220.25
2023-04-10T04:59:14.301Z,91231.09
2023-04-10T05:01:41.231Z,91228.28
2023-04-10T05:04:08.162Z,91223.59
2023-04-10T05:06:34.985Z,91222.25
2023-04-10T05:09:01.767Z,91229.91
2023-04-10T05:11:28.518Z,91227.88
2023-04-10T05:13:55.495Z,91228.66
2023-04-10T05:16:22.578Z,91233.84
2023-04-10T05:18:49.265Z,91236.56
2023-04-10T05:21:16.265Z,91240.56
2023-04-10T05:23:42.979Z,91240.38
2023-04-10T05:26:09.621Z,91228.41
2023-04-10T05:28:36.301Z,91230.91
2023-04-10T05:31:03.077Z,91229.47
2023-04-10T05:33:29.836Z,91233.56
2023-04-10T05:35:56.799Z,91230.97
2023-04-10T05:38:24.638Z,91230.59
2023-04-10T05:40:51.985Z,91237.84
2023-04-10T05:43:18.738Z,91234.31
2023-04-10T05:45:45.496Z,91241.59
2023-04-10T05:48:12.219Z,91231.84
2023-04-10T05:50:39.087Z,91247.00
2023-04-10T05:53:06.037Z,91238.22
2023-04-10T05:55:32.799Z,91240.38
2023-04-10T05:57:59.586Z,91236.41
2023-04-10T06:00:26.328Z,91246.75
2023-04-10T06:02:53.122Z,91240.25
2023-04-10T06:05:20.128Z,91241.16
2023-04-10T06:07:47.038Z,91244.06
2023-04-10T06:10:13.707Z,91240.63
2023-04-10T06:12:40.588Z,91226.97
2023-04-10T06:15:07.990Z,91235.53
2023-04-10T06:17:34.642Z,91235.47
2023-04-10T06:20:04.718Z,91230.25
2023-04-10T06:22:32.660Z,91229.34
2023-04-10T06:24:59.531Z,91230.28
2023-04-10T06:27:27.403Z,91232.38
2023-04-10T06:29:54.191Z,91226.97
2023-04-10T06:32:21.076Z,91220.56
2023-04-10T06:34:53.597Z,91218.00
2023-04-10T06:37:28.404Z,91222.47
2023-04-10T06:40:06.510Z,91236.69
2023-04-10T06:42:33.797Z,91225.19
2023-04-10T06:45:00.879Z,91224.28
2023-04-10T06:47:28.415Z,91233.44
2023-04-10T06:49:55.440Z,91216.53
2023-04-10T06:52:22.084Z,91235.28
2023-04-10T06:54:48.854Z,91228.34
2023-04-10T06:57:16.094Z,91222.66
2023-04-10T06:59:43.192Z,91228.59
2023-04-10T07:02:10.053Z,91222.56
2023-04-10T07:04:36.956Z,91225.53
2023-04-10T07:07:03.938Z,91227.31
2023-04-10T07:09:31.162Z,91216.22
2023-04-10T07:11:57.805Z,91227.59
2023-04-10T07:14:24.625Z,91218.06
2023-04-10T07:16:51.523Z,91227.94
2023-04-10T07:19:19.767Z,91225.13
2023-04-10T07:21:50.197Z,91228.13
2023-04-10T07:24:17.972Z,91232.94
2023-04-10T07:26:45.557Z,91216.06
2023-04-10T07:29:13.070Z,91233.53
2023-04-10T07:31:43.048Z,91230.53
2023-04-10T07:34:11.390Z,91221.03
2023-04-10T07:36:38.297Z,91234.47
2023-04-10T07:39:04.945Z,91234.38
2023-04-10T07:41:31.619Z,91226.13
2023-04-10T07:43:59.295Z,91227.13
2023-04-10T07:46:27.584Z,91232.84
2023-04-10T07:48:55.838Z,91218.63
2023-04-10T07:51:23.153Z,91227.72
2023-04-10T07:53:50.134Z,91218.38
2023-04-10T07:56:18.521Z,91223.25
2023-04-10T07:58:46.039Z,91228.41
2023-04-10T08:01:13.132Z,91223.59
2023-04-10T08:03:44.276Z,91226.09
2023-04-10T08:06:11.980Z,91231.84
2023-04-10T08:08:39.992Z,91224.53
2023-04-10T08:11:21.936Z,91222.31
2023-04-10T08:13:49.113Z,91226.56
2023-04-10T08:16:15.800Z,91222.72
2023-04-10T08:18:43.016Z,91230.66
2023-04-10T08:21:09.879Z,91221.44
2023-04-10T08:23:41.399Z,91227.19
2023-04-10T08:26:08.425Z,91223.00
2023-04-10T08:28:36.494Z,91211.81
2023-04-10T08:31:03.720Z,91222.94
2023-04-10T08:33:30.686Z,91217.84
2023-04-10T08:35:57.942Z,91219.19
2023-04-10T08:38:27.786Z,91216.66
2023-04-10T08:40:54.941Z,91213.47
2023-04-10T08:43:21.921Z,91218.78
2023-04-10T08:45:49.218Z,91210.75
2023-04-10T08:48:18.619Z,91214.47
2023-04-10T08:50:46.510Z,91208.34
2023-04-10T08:53:16.073Z,91213.66
2023-04-10T08:55:45.870Z,91208.94
2023-04-10T08:58:14.027Z,91211.16
2023-04-10T09:00:42.106Z,91209.88
2023-04-10T09:03:12.258Z,91202.41
2023-04-10T09:05:39.633Z,91214.00
2023-04-10T09:08:11.082Z,91203.22
2023-04-10T09:10:38.140Z,91195.59
2023-04-10T09:13:05.063Z,91182.00
2023-04-10T09:15:54.808Z,91192.63
2023-04-10T09:18:21.612Z,91187.59
2023-04-10T09:20:51.646Z,91190.63
2023-04-10T09:23:24.821Z,91186.66
2023-04-10T09:25:51.523Z,91164.47
2023-04-10T09:28:18.167Z,91188.00
2023-04-10T09:30:46.409Z,91194.31
2023-04-10T09:33:30.271Z,91187.94
2023-04-10T09:36:00.191Z,91183.13
2023-04-10T09:38:27.112Z,91193.28
2023-04-10T09:41:07.205Z,91183.97
2023-04-10T09:43:33.970Z,91188.19
2023-04-10T09:46:00.685Z,91190.28
2023-04-10T09:48:27.953Z,91197.91
2023-04-10T09:50:54.686Z,91190.81
2023-04-10T09:53:22.022Z,91189.94
2023-04-10T09:55:50.537Z,91167.53
2023-04-10T09:58:19.021Z,91193.91
2023-04-10T10:00:48.899Z,91189.13
2023-04-10T10:03:17.606Z,91193.72
2023-04-10T10:05:48.365Z,91202.72
2023-04-10T10:08:16.052Z,91198.97
2023-04-10T10:10:53.747Z,91197.19
2023-04-10T10:13:40.975Z,91190.81
2023-04-10T10:16:15.908Z,91190.81
2023-04-10T10:18:50.844Z,91194.06
2023-04-10T10:21:20.941Z,91186.78
2023-04-10T10:23:53.991Z,91190.56
2023-04-10T10:26:23.843Z,91179.69
2023-04-10T10:28:54.865Z,91192.34
2023-04-10T10:31:23.772Z,91193.09
2023-04-10T10:33:54.671Z,91178.78
2023-04-10T10:36:22.763Z,91179.28
2023-04-10T10:39:29.133Z,91191.94
2023-04-10T10:42:20.964Z,91190.84
2023-04-10T10:45:11.821Z,91187.19
2023-04-10T10:47:57.077Z,91185.56
2023-04-10T10:50:24.928Z,91187.72
2023-04-10T10:52:53.960Z,91186.97
2023-04-10T10:55:36.068Z,91182.41
2023-04-10T10:58:05.746Z,91191.44
2023-04-10T11:00:51.420Z,91182.75
2023-04-10T11:03:18.339Z,91181.69
2023-04-10T11:05:52.496Z,91184.38
2023-04-10T11:08:49.090Z,91169.44
2023-04-10T11:11:27.605Z,91155.56
2023-04-10T11:13:57.248Z,91172.78
2023-04-10T11:16:44.233Z,91171.28
2023-04-10T11:19:16.454Z,91173.97
2023-04-10T11:22:02.546Z,91174.41
2023-04-10T11:24:30.122Z,91170.63
2023-04-10T11:26:57.635Z,91160.28
2023-04-10T11:29:27.072Z,91170.06
2023-04-10T11:31:59.202Z,91158.19
2023-04-10T11:34:27.685Z,91163.06
2023-04-10T11:36:54.721Z,91168.13
2023-04-10T11:39:22.145Z,91153.22
2023-04-10T11:41:53.322Z,91165.41
2023-04-10T11:44:31.745Z,91162.31
2023-04-10T11:46:59.287Z,91165.97
2023-04-10T11:49:28.300Z,91164.91
2023-04-10T11:51:55.156Z,91151.78
2023-04-10T11:54:23.812Z,91161.16
2023-04-10T11:57:04.986Z,91163.66
2023-04-10T11:59:33.352Z,91159.19
2023-04-10T12:02:14.987Z,91156.53
2023-04-10T12:04:46.790Z,91161.56
2023-04-10T12:07:13.594Z,91155.56
2023-04-10T12:09:40.796Z,91153.94
2023-04-10T12:12:08.372Z,91153.34
2023-04-10T12:14:38.547Z,91147.28
2023-04-10T12:17:07.772Z,91162.06
2023-04-10T12:19:35.701Z,91146.16
2023-04-10T12:22:03.128Z,91142.97
2023-04-10T12:24:53.576Z,91143.81
2023-04-10T12:27:27.891Z,91145.47
2023-04-10T12:29:58.534Z,91142.38
2023-04-10T12:32:27.760Z,91135.13
2023-04-10T12:35:06.257Z,91143.25
2023-04-10T12:37:50.450Z,91142.47
2023-04-10T12:40:18.660Z,91126.22
2023-04-10T12:42:45.739Z,91126.56
2023-04-10T12:45:14.238Z,91125.88
2023-04-10T12:47:48.124Z,91122.09
2023-04-10T12:50:16.705Z,91124.66
2023-04-10T12:52:45.547Z,91117.97
2023-04-10T12:55:21.255Z,91121.28
2023-04-10T12:57:49.249Z,91114.94
2023-04-10T13:00:19.737Z,91113.75
2023-04-10T13:02:49.094Z,91108.63
2023-04-10T13:05:16.028Z,91108.78
2023-04-10T13:07:42.936Z,91100.53
2023-04-10T13:10:11.335Z,91100.84
2023-04-10T13:12:39.194Z,91082.16
2023-04-10T13:15:08.281Z,91087.66
2023-04-10T13:17:35.438Z,91080.41
2023-04-10T13:20:02.323Z,91079.88
2023-04-10T13:22:28.930Z,91091.41
2023-04-10T13:24:55.704Z,91092.06
2023-04-10T13:27:22.385Z,91096.66
2023-04-10T13:29:49.320Z,91086.06
2023-04-10T13:32:16.849Z,91091.56
2023-04-10T13:34:45.363Z,91094.78
2023-04-10T13:37:14.769Z,91078.06
2023-04-10T13:39:43.710Z,91091.25
2023-04-10T13:42:16.222Z,91092.06
2023-04-10T13:44:43.249Z,91086.84
2023-04-10T13:47:10.022Z,91097.75
2023-04-10T13:49:36.874Z,91086.66
2023-04-10T13:52:03.666Z,91076.09
2023-04-10T13:54:30.405Z,91073.88
2023-04-10T13:56:59.201Z,91080.41
2023-04-10T13:59:26.327Z,91081.50
2023-04-10T14:01:53.100Z,91083.69
2023-04-10T14:04:20.002Z,91082.84
2023-04-10T14:06:47.028Z,91083.25
2023-04-10T14:09:14.170Z,91054.34
2023-04-10T14:11:42.088Z,91066.06
2023-04-10T14:14:08.870Z,91069.59
2023-04-10T14:16:35.925Z,91070.31
2023-04-10T14:19:02.602Z,91074.25
2023-04-10T14:21:29.252Z,91070.28
2023-04-10T14:23:58.059Z,91072.13
2023-04-10T14:26:24.732Z,91074.19
2023-04-10T14:28:52.417Z,91069.09
2023-04-10T14:31:22.606Z,91071.50
2023-04-10T14:33:49.505Z,91058.84
2023-04-10T14:36:17.759Z,91067.22
2023-04-10T14:38:45.070Z,91062.09
2023-04-10T14:41:11.808Z,91064.56
2023-04-10T14:43:42.146Z,91062.03
2023-04-10T14:46:10.562Z,91060.88
2023-04-10T14:48:37.337Z,91053.78
2023-04-10T14:51:05.742Z,91060.53
2023-04-10T14:53:34.846Z,91051.69
2023-04-10T14:56:04.629Z,91045.81
2023-04-10T14:58:31.230Z,91055.59
2023-04-10T15:01:01.321Z,91050.53
2023-04-10T15:03:28.312Z,91050.34
2023-04-10T15:06:01.628Z,91045.22
2023-04-10T15:08:30.001Z,91049.06
2023-04-10T15:10:56.692Z,91044.25
2023-04-10T15:13:25.960Z,91044.63
2023-04-10T15:15:52.685Z,91031.91
2023-04-10T15:18:19.831Z,91047.31
2023-04-10T15:20:46.594Z,91036.06
2023-04-10T15:23:13.252Z,91040.34
2023-04-10T15:25:39.932Z,91042.91
2023-04-10T15:28:08.556Z,91041.09
2023-04-10T15:30:35.512Z,91038.81
2023-04-10T15:33:02.437Z,91028.91
2023-04-10T15:35:30.555Z,91025.16
2023-04-10T15:37:57.616Z,91017.94
2023-04-10T15:40:24.618Z,91033.66
2023-04-10T15:42:51.450Z,91037.13
2023-04-10T15:45:18.324Z,91036.19
2023-04-10T15:47:47.499Z,91035.56
2023-04-10T15:50:14.501Z,91026.69
2023-04-10T15:52:41.186Z,91033.66
2023-04-10T15:55:08.505Z,91025.16
2023-04-10T15:57:35.581Z,91028.72
2023-04-10T16:00:04.250Z,91021.28
2023-04-10T16:02:32.375Z,91032.28
2023-04-10T16:05:02.228Z,91025.56
2023-04-10T16:07:28.939Z,91032.88
2023-04-10T16:09:56.872Z,91022.38
2023-04-10T16:12:23.894Z,91008.25
2023-04-10T16:14:51.135Z,91015.28
2023-04-10T16:17:17.885Z,91027.16
2023-04-10T16:19:45.095Z,91022.56
2023-04-10T16:22:11.713Z,91028.38
2023-04-10T16:24:38.442Z,91021.56
2023-04-10T16:27:08.186Z,91013.00
2023-04-10T16:29:35.228Z,91023.78
2023-04-10T16:32:02.240Z,91016.66
2023-04-10T16:34:32.398Z,91030.81
2023-04-10T16:37:00.101Z,91024.84
2023-04-10T16:39:27.021Z,91017.13
2023-04-10T16:41:53.715Z,91028.09
2023-04-10T16:44:20.438Z,91023.75
2023-04-10T16:46:47.170Z,90995.66
2023-04-10T16:49:13.958Z,91018.53
2023-04-10T16:51:41.070Z,91014.59
2023-04-10T16:54:07.984Z,91008.97
2023-04-10T16:56:34.702Z,91009.84
2023-04-10T16:59:01.366Z,91014.59
2023-04-10T17:01:28.514Z,91006.47
2023-04-10T17:03:55.622Z,91017.38
2023-04-10T17:06:22.337Z,91014.53
2023-04-10T17:08:49.022Z,91010.13
2023-04-10T17:11:16.945Z,91005.44
2023-04-10T17:13:45.770Z,91010.59
2023-04-10T17:16:12.609Z,91002.81
2023-04-10T17:18:39.667Z,90977.59
2023-04-10T17:21:11.293Z,91010.88
2023-04-10T17:23:38.556Z,91006.59
2023-04-10T17:26:06.702Z,90976.94
2023-04-10T17:28:37.829Z,91005.91
2023-04-10T17:31:04.868Z,90978.88
2023-04-10T17:33:31.700Z,91002.53
2023-04-10T17:36:02.923Z,90999.44
2023-04-10T17:38:29.895Z,90996.13
2023-04-10T17:40:56.637Z,90999.38
2023-04-10T17:43:23.516Z,90981.84
2023-04-10T17:45:50.340Z,91012.13
2023-04-10T17:48:18.466Z,91008.56
2023-04-10T17:50:45.347Z,90994.16
2023-04-10T17:53:12.388Z,91016.03
2023-04-10T17:55:39.863Z,91012.41
2023-04-10T17:58:06.802Z,91005.00
2023-04-10T18:00:34.225Z,91021.47
2023-04-10T18:03:01.400Z,91019.41
2023-04-10T18:05:29.610Z,91010.03
2023-04-10T18:07:57.144Z,90991.53
2023-04-10T18:10:23.879Z,91016.69
2023-04-10T18:12:51.236Z,91013.91
2023-04-10T18:15:18.768Z,91018.66
2023-04-10T18:17:46.294Z,91028.28
2023-04-10T18:20:13.438Z,91015.97
2023-04-10T18:22:40.704Z,91020.69
2023-04-10T18:25:08.056Z,91010.66
2023-04-10T18:27:36.093Z,90994.88
2023-04-10T18:30:02.844Z,91030.38
2023-04-10T18:32:30.786Z,91017.03
2023-04-10T18:34:57.540Z,91025.31
2023-04-10T18:37:25.184Z,91036.78
2023-04-10T18:39:52.045Z,91038.69
2023-04-10T18:42:18.669Z,91035.56
2023-04-10T18:44:46.068Z,91040.09
2023-04-10T18:47:13.483Z,91033.97
2023-04-10T18:49:40.457Z,91032.94
2023-04-10T18:52:07.644Z,91029.44
2023-04-10T18:54:35.469Z,91032.53
2023-04-10T18:57:02.379Z,91045.34
2023-04-10T18:59:29.937Z,91029.72
2023-04-10T19:01:56.785Z,91031.41
2023-04-10T19:04:25.165Z,91023.88
2023-04-10T19:06:52.068Z,91030.28
2023-04-10T19:09:18.809Z,91032.41
2023-04-10T19:11:45.605Z,91041.66
2023-04-10T19:14:12.322Z,91030.06
2023-04-10T19:16:38.950Z,91022.88
2023-04-10T19:19:05.745Z,91025.28
2023-04-10T19:21:32.533Z,91023.06
2023-04-10T19:23:59.202Z,91026.78
2023-04-10T19:26:25.924Z,91019.13
2023-04-10T19:28:54.076Z,91015.19
2023-04-10T19:31:21.258Z,91010.06
2023-04-10T19:33:48.763Z,91016.72
2023-04-10T19:36:19.346Z,91021.84
2023-04-10T19:38:48.974Z,91005.81
2023-04-10T19:41:16.549Z,90993.06
2023-04-10T19:43:44.106Z,90997.59
2023-04-10T19:46:32.149Z,90999.91
2023-04-10T19:48:59.628Z,90994.16
2023-04-10T19:51:27.359Z,91002.53
2023-04-10T19:53:56.059Z,90992.47
2023-04-10T19:56:23.344Z,91001.47
2023-04-10T19:58:54.268Z,91007.44
2023-04-10T20:01:23.465Z,91001.09
2023-04-10T20:03:51.312Z,91002.25
2023-04-10T20:06:18.305Z,91006.03
2023-04-10T20:08:48.302Z,91000.34
2023-04-10T20:11:14.987Z,91002.97
2023-04-10T20:13:41.939Z,90997.56
2023-04-10T20:16:09.197Z,90990.06
2023-04-10T20:18:37.681Z,90996.75
2023-04-10T20:21:05.149Z,90992.16
2023-04-10T20:23:32.400Z,90993.00
2023-04-10T20:25:59.367Z,90968.94
2023-04-10T20:28:26.305Z,90983.19
2023-04-10T20:30:53.338Z,90986.88
2023-04-10T20:33:20.018Z,90978.47
2023-04-10T20:35:53.548Z,90978.13
2023-04-10T20:38:20.277Z,90978.34
2023-04-10T20:40:46.896Z,90977.25
2023-04-10T20:43:14.188Z,90968.69
2023-04-10T20:45:41.480Z,90964.59
2023-04-10T20:48:08.933Z,90963.75
2023-04-10T20:50:37.018Z,90956.78
2023-04-10T20:53:03.822Z,90962.13
2023-04-10T20:55:30.524Z,90962.50
2023-04-10T20:57:58.768Z,90953.63
2023-04-10T21:00:25.501Z,90939.91
2023-04-10T21:02:52.361Z,90946.09
2023-04-10T21:05:19.296Z,90940.75
2023-04-10T21:07:46.077Z,90948.47
2023-04-10T21:10:12.794Z,90940.25
2023-04-10T21:12:39.578Z,90937.72
2023-04-10T21:15:07.151Z,90937.31
2023-04-10T21:17:34.557Z,90925.78
2023-04-10T21:20:02.860Z,90932.94
2023-04-10T21:22:29.718Z,90938.75
2023-04-10T21:24:56.602Z,90938.63
2023-04-10T21:27:24.092Z,90940.31
2023-04-10T21:29:51.202Z,90928.34
2023-04-10T21:32:17.864Z,90925.59
2023-04-10T21:34:44.512Z,90919.50
2023-04-10T21:37:11.168Z,90922.72
2023-04-10T21:39:41.161Z,90926.16
2023-04-10T21:42:07.819Z,90924.63
2023-04-10T21:44:34.516Z,90922.50
2023-04-10T21:47:01.515Z,90906.00
2023-04-10T21:49:28.858Z,90918.75
2023-04-10T21:51:55.510Z,90917.06
2023-04-10T21:54:22.200Z,90914.63
2023-04-10T21:56:49.082Z,90905.94
2023-04-10T21:59:15.860Z,90911.97
2023-04-10T22:01:43.416Z,90906.25
2023-04-10T22:04:10.501Z,90910.66
2023-04-10T22:06:37.284Z,90907.13
2023-04-10T22:09:04.053Z,90904.38
2023-04-10T22:11:30.945Z,90894.66
2023-04-10T22:14:00.268Z,90883.06
2023-04-10T22:16:32.441Z,90896.81
2023-04-10T22:18:59.831Z,90888.94
2023-04-10T22:21:27.476Z,90903.59
2023-04-10T22:23:54.405Z,90894.22
2023-04-10T22:26:21.214Z,90891.03
2023-04-10T22:28:47.882Z,90897.00
2023-04-10T22:31:18.268Z,90900.69
2023-04-10T22:33:44.955Z,90889.63
2023-04-10T22:36:11.807Z,90893.47
2023-04-10T22:38:38.521Z,90898.00
2023-04-10T22:41:06.705Z,90888.34
2023-04-10T22:43:36.138Z,90894.06
2023-04-10T22:46:02.873Z,90892.06
2023-04-10T22:48:29.573Z,90891.03
2023-04-10T22:50:56.468Z,90886.28
2023-04-10T22:53:23.337Z,90875.88
2023-04-10T22:55:50.021Z,90882.81
2023-04-10T22:58:16.673Z,90878.38
2023-04-10T23:00:43.391Z,90868.00
2023-04-10T23:03:10.210Z,90873.63
2023-04-10T23:05:38.212Z,90868.41
2023-04-10T23:08:05.002Z,90872.88
2023-04-10T23:10:31.691Z,90870.91
2023-04-10T23:12:58.356Z,90872.28
2023-04-10T23:15:26.386Z,90865.81
2023-04-10T23:17:53.096Z,90865.41
2023-04-10T23:20:20.825Z,90860.56
2023-04-10T23:22:47.784Z,90859.53
2023-04-10T23:25:15.027Z,90859.47
2023-04-10T23:27:41.824Z,90846.22
2023-04-10T23:30:09.686Z,90849.84
2023-04-10T23:32:36.890Z,90853.69
2023-04-10T23:35:04.018Z,90843.28
2023-04-10T23:37:34.012Z,90849.25
2023-04-10T23:40:00.830Z,90846.72
2023-04-10T23:42:29.597Z,90842.59
2023-04-10T23:44:56.350Z,90843.09
2023-04-10T23:47:23.086Z,90836.50
2023-04-10T23:49:49.766Z,90840.63
2023-04-10T23:52:16.666Z,90825.25
2023-04-10T23:54:43.800Z,90815.53
2023-04-10T23:57:10.806Z,90810.06
2023-04-10T23:59:37.610Z,90818.44
